Time;durP1;ratioP1;P1;durP2;ratioP2;P2;SDS_P1;SDS_P2;PMS_P1;PMS_P2;Temp;Humidity;BMP_temperature;BMP_pressure;BME280_temperature;BME280_humidity;BME280_pressure;Samples;Min_cycle;Max_cycle;Signal;HPM_P1;HPM_P2
2023/08/01 00:01:51;;;;;;;3.38;1.30;;;;;;;;;;5034272;28;20044;-90
2023/08/01 00:04:16;;;;;;;3.47;1.35;;;;;;;;;;5032158;28;20024;-89
2023/08/01 00:06:41;;;;;;;5.90;1.70;;;;;;;;;;5033277;28;20017;-89
2023/08/01 00:09:07;;;;;;;8.13;1.42;;;;;;;;;;5032175;28;20026;-89
2023/08/01 00:11:32;;;;;;;5.32;1.60;;;;;;;;;;5032611;28;20468;-88
2023/08/01 00:13:58;;;;;;;4.10;2.10;;;;;;;;;;5046507;28;20317;-89
2023/08/01 00:16:23;;;;;;;2.92;1.80;;;;;;;;;;5053471;28;20022;-89
2023/08/01 00:18:48;;;;;;;4.20;1.50;;;;;;;;;;5051128;28;20049;-89
2023/08/01 00:21:14;;;;;;;3.97;1.73;;;;;;;;;;5021865;28;20108;-88
2023/08/01 00:23:39;;;;;;;3.25;1.63;;;;;;;;;;5031885;28;20115;-88
2023/08/01 00:26:04;;;;;;;5.22;1.65;;;;;;;;;;5018918;28;20149;-89
2023/08/01 00:28:30;;;;;;;4.55;2.30;;;;;;;;;;5032149;28;20017;-88
2023/08/01 00:31:08;;;;;;;5.60;1.90;;;;;;;;;;5034383;28;20025;-88
2023/08/01 00:33:33;;;;;;;2.45;1.58;;;;;;;;;;5031863;28;20021;-89
2023/08/01 00:35:59;;;;;;;3.58;1.90;;;;;;;;;;5032930;28;20040;-88
2023/08/01 00:38:24;;;;;;;5.57;1.98;;;;;;;;;;5031650;28;20105;-89
2023/08/01 00:40:50;;;;;;;4.72;1.75;;;;;;;;;;5032158;28;20206;-90
2023/08/01 00:43:15;;;;;;;4.60;1.85;;;;;;;;;;5032657;28;20130;-89
2023/08/01 00:45:40;;;;;;;7.25;1.90;;;;;;;;;;5032654;28;20111;-89
2023/08/01 00:48:09;;;;;;;4.03;2.20;;;;;;;;;;5033324;28;20018;-89
2023/08/01 00:50:34;;;;;;;5.40;2.35;;;;;;;;;;5025015;28;20401;-89
2023/08/01 00:53:00;;;;;;;4.60;2.25;;;;;;;;;;5039870;28;20021;-89
2023/08/01 00:55:26;;;;;;;7.03;2.47;;;;;;;;;;5031558;28;20091;-89
2023/08/01 00:57:52;;;;;;;4.10;2.47;;;;;;;;;;5033055;28;20028;-89
2023/08/01 01:00:17;;;;;;;7.60;2.92;;;;;;;;;;5032300;28;20017;-88
2023/08/01 01:02:42;;;;;;;5.22;2.63;;;;;;;;;;5031301;28;20021;-89
2023/08/01 01:05:08;;;;;;;7.28;3.15;;;;;;;;;;5031640;28;20041;-88
2023/08/01 01:07:34;;;;;;;8.65;3.55;;;;;;;;;;5031416;28;20037;-89
2023/08/01 01:09:59;;;;;;;5.28;3.15;;;;;;;;;;5032118;28;20032;-88
2023/08/01 01:12:25;;;;;;;10.00;3.60;;;;;;;;;;5030799;28;20021;-89
2023/08/01 01:14:50;;;;;;;12.05;3.67;;;;;;;;;;5031504;28;20018;-88
2023/08/01 01:17:15;;;;;;;7.75;3.22;;;;;;;;;;5031461;28;20014;-89
2023/08/01 01:19:41;;;;;;;6.07;3.63;;;;;;;;;;5031795;28;20163;-89
2023/08/01 01:22:07;;;;;;;6.43;3.13;;;;;;;;;;5030932;28;20071;-89
2023/08/01 01:24:33;;;;;;;8.43;3.10;;;;;;;;;;5031361;28;20483;-89
2023/08/01 01:27:05;;;;;;;5.78;2.40;;;;;;;;;;5031771;28;20021;-89
2023/08/01 01:29:32;;;;;;;8.52;3.35;;;;;;;;;;5031425;28;20022;-89
2023/08/01 01:31:59;;;;;;;8.98;3.22;;;;;;;;;;5033081;28;20021;-90
2023/08/01 01:34:24;;;;;;;7.68;3.78;;;;;;;;;;5030256;28;20023;-89
2023/08/01 01:36:49;;;;;;;8.93;3.60;;;;;;;;;;5032065;28;20100;-90
2023/08/01 01:39:15;;;;;;;5.65;3.20;;;;;;;;;;5032105;28;20026;-89
2023/08/01 01:41:40;;;;;;;13.73;3.92;;;;;;;;;;5035633;28;20022;-89
2023/08/01 01:44:05;;;;;;;7.18;3.50;;;;;;;;;;5035895;28;20041;-89
2023/08/01 01:46:34;;;;;;;6.50;3.30;;;;;;;;;;5035982;28;20018;-89
2023/08/01 01:48:59;;;;;;;7.25;3.95;;;;;;;;;;5035045;28;20041;-89
2023/08/01 01:51:28;;;;;;;10.13;3.83;;;;;;;;;;5036044;28;20022;-89
2023/08/01 01:53:53;;;;;;;8.02;3.85;;;;;;;;;;5036700;28;20010;-88
2023/08/01 01:56:19;;;;;;;12.32;4.80;;;;;;;;;;5035544;28;20036;-89
2023/08/01 01:58:44;;;;;;;10.70;3.90;;;;;;;;;;5034517;28;20025;-89
2023/08/01 02:01:09;;;;;;;8.00;3.95;;;;;;;;;;5036818;28;20033;-88
2023/08/01 02:03:35;;;;;;;7.20;3.45;;;;;;;;;;5035063;28;20143;-89
2023/08/01 02:06:03;;;;;;;10.63;3.75;;;;;;;;;;5051910;28;20033;-88
2023/08/01 02:08:28;;;;;;;16.20;4.00;;;;;;;;;;5034122;28;20032;-88
2023/08/01 02:10:55;;;;;;;7.97;3.97;;;;;;;;;;5035118;28;20017;-89
2023/08/01 02:13:20;;;;;;;10.23;4.53;;;;;;;;;;5034505;28;20028;-89
2023/08/01 02:15:45;;;;;;;10.25;3.88;;;;;;;;;;5035136;28;20022;-89
2023/08/01 02:18:10;;;;;;;10.85;4.10;;;;;;;;;;5034359;28;20033;-89
2023/08/01 02:20:38;;;;;;;10.30;3.90;;;;;;;;;;5033657;28;20465;-89
2023/08/01 02:23:04;;;;;;;8.60;3.58;;;;;;;;;;5034736;28;20449;-89
2023/08/01 02:25:29;;;;;;;6.45;3.53;;;;;;;;;;5034860;28;20104;-89
2023/08/01 02:27:54;;;;;;;9.35;3.72;;;;;;;;;;5033800;28;20067;-88
2023/08/01 02:30:19;;;;;;;5.85;3.28;;;;;;;;;;5034580;28;20026;-89
2023/08/01 02:32:45;;;;;;;7.95;3.47;;;;;;;;;;5034633;28;20014;-89
2023/08/01 02:35:10;;;;;;;10.57;3.30;;;;;;;;;;5034683;28;20021;-89
2023/08/01 02:37:38;;;;;;;5.82;3.33;;;;;;;;;;5034280;28;20040;-89
2023/08/01 02:40:07;;;;;;;8.35;3.33;;;;;;;;;;5033376;28;20093;-90
2023/08/01 02:42:32;;;;;;;6.50;3.08;;;;;;;;;;5034318;28;20041;-89
2023/08/01 02:44:57;;;;;;;8.68;3.80;;;;;;;;;;5034545;28;20131;-89
2023/08/01 02:47:23;;;;;;;14.25;3.58;;;;;;;;;;5033438;28;20116;-89
2023/08/01 02:49:48;;;;;;;8.40;3.20;;;;;;;;;;5033156;28;20033;-89
2023/08/01 02:52:13;;;;;;;8.02;3.30;;;;;;;;;;5034212;28;20443;-89
2023/08/01 02:54:42;;;;;;;10.68;4.25;;;;;;;;;;5033969;28;20041;-89
2023/08/01 02:57:07;;;;;;;12.20;3.30;;;;;;;;;;5034583;28;20017;-89
2023/08/01 02:59:33;;;;;;;7.40;3.58;;;;;;;;;;5033475;28;20030;-89
2023/08/01 03:01:58;;;;;;;9.68;3.83;;;;;;;;;;5034266;28;20041;-89
2023/08/01 03:04:23;;;;;;;23.25;4.57;;;;;;;;;;5034242;28;20024;-89
2023/08/01 03:06:49;;;;;;;12.25;3.53;;;;;;;;;;5033778;28;20024;-89
2023/08/01 03:09:14;;;;;;;20.95;3.88;;;;;;;;;;5033640;28;20030;-89
2023/08/01 03:11:39;;;;;;;12.18;4.50;;;;;;;;;;5034170;28;20085;-89
2023/08/01 03:14:04;;;;;;;13.07;4.53;;;;;;;;;;5033819;28;20039;-89
2023/08/01 03:16:30;;;;;;;9.82;4.72;;;;;;;;;;5034232;28;20032;-89
2023/08/01 03:18:55;;;;;;;10.15;4.25;;;;;;;;;;5033725;28;20086;-89
2023/08/01 03:21:21;;;;;;;9.27;4.47;;;;;;;;;;5033832;28;20096;-88
2023/08/01 03:23:46;;;;;;;11.30;4.28;;;;;;;;;;5033571;28;20107;-89
2023/08/01 03:26:11;;;;;;;6.45;3.78;;;;;;;;;;5033232;28;20045;-89
2023/08/01 03:28:37;;;;;;;8.68;4.13;;;;;;;;;;5032841;28;20064;-89
2023/08/01 03:31:02;;;;;;;12.68;4.28;;;;;;;;;;5033240;28;20028;-89
2023/08/01 03:33:27;;;;;;;11.55;4.63;;;;;;;;;;5033498;28;20009;-89
2023/08/01 03:35:53;;;;;;;12.38;5.10;;;;;;;;;;5033548;28;20025;-89
2023/08/01 03:38:18;;;;;;;11.95;5.13;;;;;;;;;;5034513;28;20476;-89
2023/08/01 03:40:43;;;;;;;11.85;4.60;;;;;;;;;;5034845;28;20021;-89
2023/08/01 03:43:10;;;;;;;13.65;5.57;;;;;;;;;;5033582;28;20239;-89
2023/08/01 03:45:35;;;;;;;11.73;5.32;;;;;;;;;;5033428;28;20032;-89
2023/08/01 03:48:03;;;;;;;10.35;5.18;;;;;;;;;;5032740;28;20093;-89
2023/08/01 03:50:29;;;;;;;12.07;5.35;;;;;;;;;;5032520;28;20010;-89
2023/08/01 03:52:54;;;;;;;15.40;6.22;;;;;;;;;;5032412;28;20453;-89
2023/08/01 03:55:19;;;;;;;15.70;5.38;;;;;;;;;;5033068;28;20024;-88
2023/08/01 03:57:44;;;;;;;10.95;5.55;;;;;;;;;;5032301;28;20033;-89
2023/08/01 04:00:18;;;;;;;13.93;5.03;;;;;;;;;;5032639;28;20041;-88
2023/08/01 04:02:43;;;;;;;18.23;6.47;;;;;;;;;;5032129;28;20029;-89
2023/08/01 04:05:09;;;;;;;15.45;5.93;;;;;;;;;;5032696;28;20025;-89
2023/08/01 04:07:35;;;;;;;12.75;5.43;;;;;;;;;;5032753;28;20068;-89
2023/08/01 04:10:00;;;;;;;16.80;6.47;;;;;;;;;;5033141;28;20067;-89
2023/08/01 04:12:26;;;;;;;16.27;6.72;;;;;;;;;;5031809;28;20025;-89
2023/08/01 04:14:51;;;;;;;13.90;6.35;;;;;;;;;;5032546;28;20013;-89
2023/08/01 04:17:17;;;;;;;14.38;6.15;;;;;;;;;;5034191;28;20085;-88
2023/08/01 04:19:42;;;;;;;17.92;6.63;;;;;;;;;;5032933;28;20121;-89
2023/08/01 04:22:09;;;;;;;15.73;6.40;;;;;;;;;;5032664;28;20017;-89
2023/08/01 04:24:34;;;;;;;17.80;5.82;;;;;;;;;;5031676;28;20014;-88
2023/08/01 04:26:59;;;;;;;22.45;6.38;;;;;;;;;;5028570;28;20025;-89
2023/08/01 04:29:25;;;;;;;16.90;7.18;;;;;;;;;;5032111;28;20049;-89
2023/08/01 04:31:50;;;;;;;16.98;6.97;;;;;;;;;;5032863;28;20021;-89
2023/08/01 04:34:17;;;;;;;19.05;7.10;;;;;;;;;;5033927;28;20013;-88
2023/08/01 04:36:43;;;;;;;18.15;6.45;;;;;;;;;;5032660;28;20113;-89
2023/08/01 04:39:08;;;;;;;14.60;6.20;;;;;;;;;;5031493;28;20104;-88
2023/08/01 04:41:33;;;;;;;14.52;6.35;;;;;;;;;;5032596;28;20025;-88
2023/08/01 04:43:58;;;;;;;19.27;7.13;;;;;;;;;;5033712;28;20026;-89
2023/08/01 04:46:24;;;;;;;14.68;6.50;;;;;;;;;;5028820;28;20089;-88
2023/08/01 04:48:49;;;;;;;24.20;7.55;;;;;;;;;;5032156;28;20029;-89
2023/08/01 04:51:17;;;;;;;17.13;6.75;;;;;;;;;;5033243;28;20021;-89
2023/08/01 04:53:42;;;;;;;20.63;7.13;;;;;;;;;;5028840;28;20353;-88
2023/08/01 04:56:07;;;;;;;20.20;6.75;;;;;;;;;;5037945;28;20022;-89
2023/08/01 04:58:33;;;;;;;22.58;7.05;;;;;;;;;;5048570;28;20018;-89
2023/08/01 05:00:58;;;;;;;19.88;6.47;;;;;;;;;;5032188;28;20052;-89
2023/08/01 05:03:24;;;;;;;15.70;7.80;;;;;;;;;;5032622;28;20028;-89
2023/08/01 05:05:49;;;;;;;14.55;7.00;;;;;;;;;;5031530;28;20033;-89
2023/08/01 05:08:14;;;;;;;19.00;7.20;;;;;;;;;;5030525;28;20088;-89
2023/08/01 05:10:39;;;;;;;15.77;6.72;;;;;;;;;;5031631;28;20112;-89
2023/08/01 05:13:05;;;;;;;18.85;7.13;;;;;;;;;;5026755;28;20087;-88
2023/08/01 05:15:30;;;;;;;16.67;7.10;;;;;;;;;;5026046;28;20474;-89
2023/08/01 05:17:55;;;;;;;15.75;6.97;;;;;;;;;;5028390;28;20029;-88
2023/08/01 05:20:21;;;;;;;16.88;7.90;;;;;;;;;;5031006;28;20021;-88
2023/08/01 05:22:46;;;;;;;15.05;7.15;;;;;;;;;;5027179;28;20044;-88
2023/08/01 05:25:11;;;;;;;22.92;7.80;;;;;;;;;;5027174;28;20049;-88
2023/08/01 05:27:39;;;;;;;16.52;7.60;;;;;;;;;;5027874;28;20500;-89
2023/08/01 05:30:05;;;;;;;18.65;7.00;;;;;;;;;;5031494;28;20052;-89
2023/08/01 05:32:30;;;;;;;22.40;6.95;;;;;;;;;;5027903;28;20029;-88
2023/08/01 05:34:55;;;;;;;17.00;7.70;;;;;;;;;;5031379;28;20127;-88
2023/08/01 05:37:20;;;;;;;18.98;6.72;;;;;;;;;;5030779;28;20032;-88
2023/08/01 05:39:46;;;;;;;15.52;6.80;;;;;;;;;;5031156;28;20021;-89
2023/08/01 05:42:11;;;;;;;20.38;7.80;;;;;;;;;;5030896;28;20027;-88
2023/08/01 05:44:36;;;;;;;18.80;6.47;;;;;;;;;;5029914;28;20491;-88
2023/08/01 05:47:02;;;;;;;18.65;7.07;;;;;;;;;;5031415;28;20037;-88
2023/08/01 05:49:29;;;;;;;18.55;7.13;;;;;;;;;;5031484;28;20468;-89
2023/08/01 05:52:03;;;;;;;17.15;6.30;;;;;;;;;;5032250;28;20520;-88
2023/08/01 05:54:29;;;;;;;15.63;6.90;;;;;;;;;;5031897;28;20033;-89
2023/08/01 05:56:54;;;;;;;15.05;6.40;;;;;;;;;;5030231;28;20484;-88
2023/08/01 05:59:19;;;;;;;15.07;6.57;;;;;;;;;;5032423;28;20074;-88
2023/08/01 06:01:45;;;;;;;17.17;6.78;;;;;;;;;;5031618;28;20453;-88
2023/08/01 06:04:11;;;;;;;19.23;6.40;;;;;;;;;;5031774;28;20033;-89
2023/08/01 06:06:36;;;;;;;18.20;6.90;;;;;;;;;;5032128;28;20033;-89
2023/08/01 06:09:02;;;;;;;14.48;6.63;;;;;;;;;;5032778;28;20038;-88
2023/08/01 06:11:27;;;;;;;15.82;7.00;;;;;;;;;;5030782;28;20045;-88
2023/08/01 06:13:53;;;;;;;18.40;6.57;;;;;;;;;;5031512;28;20030;-89
2023/08/01 06:16:18;;;;;;;18.98;7.40;;;;;;;;;;5031991;28;20029;-87
2023/08/01 06:18:46;;;;;;;15.32;6.80;;;;;;;;;;5029955;28;20503;-88
2023/08/01 06:21:11;;;;;;;17.48;7.25;;;;;;;;;;5029452;28;20029;-88
2023/08/01 06:23:36;;;;;;;16.85;6.82;;;;;;;;;;5031270;28;20120;-89
2023/08/01 06:26:02;;;;;;;16.05;6.28;;;;;;;;;;5034886;28;20021;-88
2023/08/01 06:28:27;;;;;;;15.77;6.38;;;;;;;;;;5034545;28;20025;-88
2023/08/01 06:30:52;;;;;;;18.67;6.80;;;;;;;;;;5034100;28;20021;-87
2023/08/01 06:33:18;;;;;;;18.75;6.65;;;;;;;;;;5033446;28;20538;-88
2023/08/01 06:35:43;;;;;;;13.20;5.80;;;;;;;;;;5045261;28;20119;-88
2023/08/01 06:38:08;;;;;;;15.07;6.75;;;;;;;;;;5033902;28;20024;-88
2023/08/01 06:40:33;;;;;;;19.17;6.40;;;;;;;;;;5034353;28;20021;-89
2023/08/01 06:42:59;;;;;;;18.08;6.70;;;;;;;;;;5034170;28;20505;-88
2023/08/01 06:45:24;;;;;;;15.93;6.57;;;;;;;;;;5033516;28;20029;-88
2023/08/01 06:47:49;;;;;;;16.05;6.25;;;;;;;;;;5032120;28;20071;-88
2023/08/01 06:50:15;;;;;;;17.17;6.22;;;;;;;;;;5032996;28;20036;-88
2023/08/01 06:52:40;;;;;;;13.88;5.78;;;;;;;;;;5032585;28;20017;-88
2023/08/01 06:55:05;;;;;;;15.18;6.32;;;;;;;;;;5023247;28;20057;-89
2023/08/01 06:57:31;;;;;;;15.00;7.38;;;;;;;;;;5024485;28;20089;-88
2023/08/01 06:59:56;;;;;;;14.63;6.38;;;;;;;;;;5025166;28;20445;-88
2023/08/01 07:02:22;;;;;;;24.92;6.25;;;;;;;;;;5020007;28;20017;-87
2023/08/01 07:04:47;;;;;;;15.13;6.32;;;;;;;;;;5026020;28;20025;-88
2023/08/01 07:07:13;;;;;;;16.65;6.88;;;;;;;;;;5041813;28;20014;-88
2023/08/01 07:09:40;;;;;;;15.18;6.68;;;;;;;;;;5045903;28;20026;-88
2023/08/01 07:12:06;;;;;;;11.07;5.78;;;;;;;;;;5035834;28;20100;-87
2023/08/01 07:14:31;;;;;;;13.57;5.78;;;;;;;;;;5027299;28;20440;-88
2023/08/01 07:16:56;;;;;;;17.17;6.20;;;;;;;;;;5027388;28;20737;-86
2023/08/01 07:19:24;;;;;;;16.25;6.82;;;;;;;;;;5034300;28;20120;-88
2023/08/01 07:21:50;;;;;;;12.70;6.18;;;;;;;;;;5035870;28;20093;-89
2023/08/01 07:24:15;;;;;;;22.00;6.60;;;;;;;;;;5036068;28;20111;-87
2023/08/01 07:26:44;;;;;;;14.57;6.07;;;;;;;;;;5035178;28;20132;-88
2023/08/01 07:29:11;;;;;;;11.70;6.28;;;;;;;;;;5035349;28;20021;-87
2023/08/01 07:31:37;;;;;;;11.77;5.40;;;;;;;;;;5035249;28;20116;-88
2023/08/01 07:34:02;;;;;;;15.02;6.20;;;;;;;;;;5035101;28;20056;-88
2023/08/01 07:36:27;;;;;;;18.30;7.30;;;;;;;;;;5033499;28;20108;-88
2023/08/01 07:38:54;;;;;;;19.10;6.90;;;;;;;;;;5034114;28;20027;-88
2023/08/01 07:41:19;;;;;;;13.10;5.93;;;;;;;;;;5033977;28;20095;-88
2023/08/01 07:43:44;;;;;;;16.40;6.28;;;;;;;;;;5033770;28;20033;-88
2023/08/01 07:46:11;;;;;;;15.60;5.53;;;;;;;;;;5033300;28;20119;-87
2023/08/01 07:48:36;;;;;;;14.05;6.03;;;;;;;;;;5032943;28;20017;-88
2023/08/01 07:51:04;;;;;;;14.70;6.40;;;;;;;;;;5033619;28;20024;-88
2023/08/01 07:53:31;;;;;;;16.17;7.03;;;;;;;;;;5033703;28;20032;-88
2023/08/01 07:55:57;;;;;;;19.70;6.53;;;;;;;;;;5027865;28;20387;-88
2023/08/01 07:58:22;;;;;;;17.23;6.10;;;;;;;;;;5022944;28;20116;-86
2023/08/01 08:00:48;;;;;;;13.55;5.07;;;;;;;;;;5030806;28;20042;-88
2023/08/01 08:03:13;;;;;;;15.43;5.85;;;;;;;;;;5026105;28;20095;-88
2023/08/01 08:05:40;;;;;;;16.08;5.50;;;;;;;;;;5046100;28;20036;-86
2023/08/01 08:08:05;;;;;;;11.02;5.10;;;;;;;;;;5032547;28;20022;-89
2023/08/01 08:10:31;;;;;;;11.43;5.55;;;;;;;;;;5031872;28;20080;-89
2023/08/01 08:12:56;;;;;;;12.88;5.80;;;;;;;;;;5032780;28;20075;-88
2023/08/01 08:15:24;;;;;;;16.70;5.32;;;;;;;;;;5033198;28;20017;-87
2023/08/01 08:17:50;;;;;;;17.58;5.47;;;;;;;;;;5032211;28;20017;-88
2023/08/01 08:20:15;;;;;;;12.60;5.22;;;;;;;;;;5032872;28;20033;-88
2023/08/01 08:22:40;;;;;;;13.63;4.30;;;;;;;;;;5032496;28;20025;-88
2023/08/01 08:25:06;;;;;;;14.73;5.22;;;;;;;;;;5034010;28;20017;-85
2023/08/01 08:27:31;;;;;;;13.93;4.82;;;;;;;;;;5032970;28;20017;-87
2023/08/01 08:29:57;;;;;;;14.73;5.25;;;;;;;;;;5031717;28;20033;-88
2023/08/01 08:32:22;;;;;;;12.05;4.57;;;;;;;;;;5032490;28;20078;-87
2023/08/01 08:34:47;;;;;;;11.45;5.13;;;;;;;;;;5033891;28;20107;-88
2023/08/01 08:37:13;;;;;;;10.32;5.18;;;;;;;;;;5031499;28;20512;-88
2023/08/01 08:39:38;;;;;;;8.65;4.30;;;;;;;;;;5032679;28;20021;-87
2023/08/01 08:42:05;;;;;;;13.75;4.88;;;;;;;;;;5032701;28;20104;-88
2023/08/01 08:44:35;;;;;;;10.98;4.60;;;;;;;;;;5033411;28;20068;-88
2023/08/01 08:47:03;;;;;;;10.57;4.22;;;;;;;;;;5034109;28;20423;-88
2023/08/01 08:49:29;;;;;;;11.10;4.10;;;;;;;;;;5030660;28;20461;-88
2023/08/01 08:51:58;;;;;;;9.75;4.43;;;;;;;;;;5031375;28;20326;-88
2023/08/01 08:54:24;;;;;;;9.07;4.20;;;;;;;;;;5033258;28;20037;-86
2023/08/01 08:56:50;;;;;;;8.52;3.92;;;;;;;;;;5032907;28;20112;-87
2023/08/01 08:59:15;;;;;;;11.15;4.22;;;;;;;;;;5033045;28;20064;-84
2023/08/01 09:01:40;;;;;;;12.60;4.63;;;;;;;;;;5033265;28;20038;-87
2023/08/01 09:04:09;;;;;;;6.82;3.90;;;;;;;;;;5032968;28;20021;-88
2023/08/01 09:06:40;;;;;;;11.18;4.53;;;;;;;;;;5032301;28;20171;-87
2023/08/01 09:09:12;;;;;;;9.50;3.83;;;;;;;;;;5031416;28;20028;-88
2023/08/01 09:11:45;;;;;;;9.73;3.53;;;;;;;;;;5032809;28;20061;-85
2023/08/01 09:14:10;;;;;;;10.38;4.60;;;;;;;;;;5031378;28;20066;-87
2023/08/01 09:16:36;;;;;;;12.60;4.20;;;;;;;;;;5031348;28;20104;-88
2023/08/01 09:19:02;;;;;;;6.85;3.20;;;;;;;;;;5031854;28;20025;-87
2023/08/01 09:21:33;;;;;;;6.60;3.78;;;;;;;;;;5031987;28;20152;-88
2023/08/01 09:23:58;;;;;;;8.68;3.45;;;;;;;;;;5032997;28;20558;-88
2023/08/01 09:26:24;;;;;;;8.35;3.50;;;;;;;;;;5051081;28;20022;-87
2023/08/01 09:28:56;;;;;;;10.30;3.90;;;;;;;;;;5031505;28;20026;-88
2023/08/01 09:31:29;;;;;;;10.55;3.75;;;;;;;;;;5030530;28;20024;-88
2023/08/01 09:33:54;;;;;;;9.75;3.72;;;;;;;;;;5030365;28;20047;-87
2023/08/01 09:36:23;;;;;;;14.02;3.72;;;;;;;;;;5031472;28;20493;-88
2023/08/01 09:38:49;;;;;;;6.43;3.55;;;;;;;;;;5029455;28;20044;-87
2023/08/01 09:41:18;;;;;;;9.65;3.67;;;;;;;;;;5031492;28;20465;-87
2023/08/01 09:43:44;;;;;;;8.07;2.70;;;;;;;;;;5021246;28;20538;-87
2023/08/01 09:46:11;;;;;;;4.78;2.80;;;;;;;;;;5029447;28;20026;-87
2023/08/01 09:48:36;;;;;;;6.78;2.35;;;;;;;;;;5033222;28;20319;-86
2023/08/01 09:51:12;;;;;;;7.03;3.05;;;;;;;;;;5032665;28;20021;-87
2023/08/01 09:53:50;;;;;;;3.97;2.25;;;;;;;;;;5028448;28;20053;-87
2023/08/01 09:56:18;;;;;;;5.43;2.30;;;;;;;;;;5033110;28;20124;-87
2023/08/01 09:58:47;;;;;;;6.15;2.50;;;;;;;;;;5030923;28;20028;-86
2023/08/01 10:01:19;;;;;;;7.50;2.55;;;;;;;;;;5034696;28;20083;-88
2023/08/01 10:03:50;;;;;;;7.40;3.13;;;;;;;;;;5035055;28;20029;-88
2023/08/01 10:06:31;;;;;;;5.35;2.63;;;;;;;;;;5030198;28;20060;-88
2023/08/01 10:08:58;;;;;;;8.48;3.72;;;;;;;;;;5045677;28;20025;-87
2023/08/01 10:11:23;;;;;;;7.50;3.08;;;;;;;;;;5052088;28;20029;-88
2023/08/01 10:13:49;;;;;;;7.28;3.20;;;;;;;;;;5037106;28;20021;-87
2023/08/01 10:16:15;;;;;;;6.63;2.80;;;;;;;;;;5035805;28;20021;-85
2023/08/01 10:18:43;;;;;;;4.72;2.83;;;;;;;;;;5036710;28;20036;-88
2023/08/01 10:21:13;;;;;;;10.57;3.42;;;;;;;;;;5036645;28;20022;-87
2023/08/01 10:23:39;;;;;;;7.53;3.17;;;;;;;;;;5036209;28;20433;-89
2023/08/01 10:26:08;;;;;;;5.45;2.35;;;;;;;;;;5033848;28;20021;-89
2023/08/01 10:28:41;;;;;;;4.10;2.45;;;;;;;;;;5042813;28;20026;-89
2023/08/01 10:31:10;;;;;;;8.05;2.67;;;;;;;;;;5033972;28;20468;-89
2023/08/01 10:33:36;;;;;;;7.72;2.80;;;;;;;;;;5034548;28;20018;-89
2023/08/01 10:36:11;;;;;;;6.05;3.03;;;;;;;;;;5034814;28;20032;-89
2023/08/01 10:38:44;;;;;;;10.82;4.28;;;;;;;;;;5035498;28;20029;-89
2023/08/01 10:41:17;;;;;;;5.60;3.88;;;;;;;;;;5035233;28;20024;-88
2023/08/01 10:43:43;;;;;;;7.53;3.88;;;;;;;;;;5033544;28;20425;-90
2023/08/01 10:46:08;;;;;;;5.28;3.60;;;;;;;;;;5034368;28;20029;-90
2023/08/01 10:48:33;;;;;;;4.90;2.53;;;;;;;;;;5034665;28;20018;-88
2023/08/01 10:50:59;;;;;;;6.05;2.65;;;;;;;;;;5034108;28;20025;-89
2023/08/01 10:53:24;;;;;;;8.43;3.13;;;;;;;;;;5024968;28;20024;-89
2023/08/01 10:55:49;;;;;;;11.43;3.70;;;;;;;;;;5034442;28;20091;-89
2023/08/01 10:58:17;;;;;;;7.90;3.50;;;;;;;;;;5034364;28;20116;-90
2023/08/01 11:00:43;;;;;;;5.53;3.45;;;;;;;;;;5034069;28;20030;-89
2023/08/01 11:03:08;;;;;;;7.75;3.17;;;;;;;;;;5034286;28;20041;-88
2023/08/01 11:05:33;;;;;;;8.98;2.45;;;;;;;;;;5034612;28;20215;-90
2023/08/01 11:07:59;;;;;;;6.25;2.50;;;;;;;;;;5030287;28;20025;-89
2023/08/01 11:10:28;;;;;;;5.22;2.05;;;;;;;;;;5032548;28;20018;-90
2023/08/01 11:12:57;;;;;;;2.70;1.90;;;;;;;;;;5042421;28;20104;-90
2023/08/01 11:15:23;;;;;;;4.43;2.40;;;;;;;;;;5032451;28;20017;-90
2023/08/01 11:17:53;;;;;;;8.30;2.08;;;;;;;;;;5030870;28;20059;-89
2023/08/01 11:20:19;;;;;;;6.13;2.05;;;;;;;;;;5041560;28;20142;-88
2023/08/01 11:22:50;;;;;;;8.05;2.28;;;;;;;;;;5032700;28;20056;-90
2023/08/01 11:25:16;;;;;;;6.25;2.10;;;;;;;;;;5034100;28;20122;-90
2023/08/01 11:27:41;;;;;;;4.40;1.70;;;;;;;;;;5031842;28;20071;-89
2023/08/01 11:30:07;;;;;;;5.75;1.75;;;;;;;;;;5033390;28;20539;-89
2023/08/01 11:32:37;;;;;;;11.43;1.60;;;;;;;;;;5035780;28;20052;-89
2023/08/01 11:35:03;;;;;;;4.70;2.03;;;;;;;;;;5031860;28;20022;-90
2023/08/01 11:37:28;;;;;;;4.25;2.15;;;;;;;;;;5031190;28;20488;-90
2023/08/01 11:39:54;;;;;;;9.38;2.40;;;;;;;;;;5030414;28;20022;-90
2023/08/01 11:42:19;;;;;;;7.13;2.40;;;;;;;;;;5031648;28;20013;-91
2023/08/01 11:44:45;;;;;;;7.22;2.20;;;;;;;;;;5035588;28;20030;-91
2023/08/01 11:47:12;;;;;;;9.63;2.78;;;;;;;;;;5037015;28;20032;-91
2023/08/01 11:49:37;;;;;;;6.47;1.95;;;;;;;;;;5033549;28;20014;-91
2023/08/01 11:52:03;;;;;;;6.95;2.30;;;;;;;;;;5033296;28;20481;-90
2023/08/01 11:54:28;;;;;;;6.93;2.33;;;;;;;;;;5035653;28;20049;-89
2023/08/01 11:57:00;;;;;;;9.00;2.70;;;;;;;;;;5036262;28;20028;-89
2023/08/01 11:59:25;;;;;;;5.18;2.35;;;;;;;;;;5036273;28;20108;-91
2023/08/01 12:01:51;;;;;;;7.15;2.53;;;;;;;;;;5035482;28;20053;-91
2023/08/01 12:04:26;;;;;;;5.38;2.88;;;;;;;;;;5034831;28;20021;-90
2023/08/01 12:06:51;;;;;;;8.68;3.55;;;;;;;;;;5033992;28;20143;-91
2023/08/01 12:09:16;;;;;;;6.50;2.95;;;;;;;;;;5035307;28;20044;-92
2023/08/01 12:11:42;;;;;;;5.20;2.47;;;;;;;;;;5033979;28;20021;-90
2023/08/01 12:14:11;;;;;;;6.70;2.45;;;;;;;;;;5033174;28;20017;-91
2023/08/01 12:16:37;;;;;;;7.28;2.30;;;;;;;;;;5033723;28;20104;-91
2023/08/01 12:19:03;;;;;;;9.98;3.53;;;;;;;;;;5034250;28;20056;-91
2023/08/01 12:21:32;;;;;;;23.90;2.47;;;;;;;;;;5033587;28;20017;-91
2023/08/01 12:23:57;;;;;;;6.80;2.35;;;;;;;;;;5032719;28;20402;-91
2023/08/01 12:26:23;;;;;;;5.55;2.53;;;;;;;;;;5034704;28;20025;-91
2023/08/01 12:28:48;;;;;;;6.43;2.35;;;;;;;;;;5033197;28;20488;-92
2023/08/01 12:31:23;;;;;;;10.75;2.20;;;;;;;;;;5033656;28;20079;-91
2023/08/01 12:33:48;;;;;;;7.30;2.45;;;;;;;;;;5032572;28;20017;-91
2023/08/01 12:36:14;;;;;;;7.10;2.10;;;;;;;;;;5033206;28;20024;-91
2023/08/01 12:38:39;;;;;;;10.07;2.17;;;;;;;;;;5031915;28;20140;-91
2023/08/01 12:41:05;;;;;;;4.45;1.83;;;;;;;;;;5032894;28;20026;-90
2023/08/01 12:43:30;;;;;;;7.45;2.00;;;;;;;;;;5033080;28;20037;-91
2023/08/01 12:45:58;;;;;;;5.68;1.77;;;;;;;;;;5032391;28;20051;-90
2023/08/01 12:48:23;;;;;;;3.67;1.40;;;;;;;;;;5031725;28;20155;-90
2023/08/01 12:50:48;;;;;;;4.95;1.40;;;;;;;;;;5032668;28;20122;-90
2023/08/01 12:53:14;;;;;;;9.52;2.03;;;;;;;;;;5032854;28;20018;-90
2023/08/01 12:55:49;;;;;;;5.00;1.65;;;;;;;;;;5032650;28;20017;-91
2023/08/01 12:58:15;;;;;;;7.68;1.77;;;;;;;;;;5031865;28;20017;-91
2023/08/01 13:00:41;;;;;;;6.13;1.45;;;;;;;;;;5032570;28;20029;-91
2023/08/01 13:03:07;;;;;;;4.47;1.50;;;;;;;;;;5031915;28;20044;-90
2023/08/01 13:05:37;;;;;;;3.78;1.40;;;;;;;;;;5032079;28;20040;-90
2023/08/01 13:08:02;;;;;;;3.60;1.30;;;;;;;;;;5031713;28;20226;-91
2023/08/01 13:10:35;;;;;;;3.63;1.25;;;;;;;;;;5032125;28;20036;-90
2023/08/01 13:13:00;;;;;;;4.32;1.17;;;;;;;;;;5031590;28;20341;-91
2023/08/01 13:15:26;;;;;;;1.85;0.98;;;;;;;;;;5032233;28;20377;-90
2023/08/01 13:17:51;;;;;;;3.20;1.25;;;;;;;;;;5033552;28;20025;-91
2023/08/01 13:20:19;;;;;;;3.53;1.42;;;;;;;;;;5034639;28;20025;-91
2023/08/01 13:22:49;;;;;;;3.55;1.20;;;;;;;;;;5033118;28;20484;-90
2023/08/01 13:25:14;;;;;;;2.25;1.10;;;;;;;;;;5031793;28;20037;-90
2023/08/01 13:27:40;;;;;;;3.88;1.20;;;;;;;;;;5032767;28;20068;-90
2023/08/01 13:30:05;;;;;;;2.17;0.95;;;;;;;;;;5033333;28;20102;-90
2023/08/01 13:32:31;;;;;;;7.88;1.58;;;;;;;;;;5032899;28;20057;-89
2023/08/01 13:34:58;;;;;;;2.65;1.08;;;;;;;;;;5032423;28;20084;-90
2023/08/01 13:37:24;;;;;;;2.22;1.17;;;;;;;;;;5033088;28;20071;-90
2023/08/01 13:39:49;;;;;;;6.50;1.40;;;;;;;;;;5032143;28;20029;-91
2023/08/01 13:42:14;;;;;;;4.50;1.30;;;;;;;;;;5031541;28;20067;-90
2023/08/01 13:44:40;;;;;;;5.50;1.40;;;;;;;;;;5032123;28;20029;-92
2023/08/01 13:47:05;;;;;;;2.08;0.95;;;;;;;;;;5032529;28;20028;-91
2023/08/01 13:49:30;;;;;;;3.17;1.00;;;;;;;;;;5031783;28;20030;-91
2023/08/01 13:51:56;;;;;;;3.28;1.23;;;;;;;;;;5032911;28;20025;-91
2023/08/01 13:54:21;;;;;;;3.95;0.93;;;;;;;;;;5029328;28;20049;-90
2023/08/01 13:56:46;;;;;;;3.72;0.93;;;;;;;;;;5032043;28;20108;-91
2023/08/01 13:59:12;;;;;;;3.05;0.85;;;;;;;;;;5033794;28;20041;-91
2023/08/01 14:01:37;;;;;;;3.35;1.20;;;;;;;;;;5031642;28;20033;-90
2023/08/01 14:04:03;;;;;;;4.50;0.82;;;;;;;;;;5032513;28;20033;-90
2023/08/01 14:06:29;;;;;;;3.05;1.30;;;;;;;;;;5032033;28;20428;-90
2023/08/01 14:08:54;;;;;;;4.75;1.33;;;;;;;;;;5032849;28;20025;-90
2023/08/01 14:11:19;;;;;;;3.58;0.85;;;;;;;;;;5031362;28;20077;-91
2023/08/01 14:13:44;;;;;;;4.97;1.02;;;;;;;;;;5031000;28;20026;-90
2023/08/01 14:16:10;;;;;;;5.47;1.10;;;;;;;;;;5031482;28;20021;-90
2023/08/01 14:18:35;;;;;;;5.13;1.27;;;;;;;;;;5031797;28;20473;-90
2023/08/01 14:21:00;;;;;;;4.93;1.33;;;;;;;;;;5031512;28;20112;-91
2023/08/01 14:23:27;;;;;;;7.68;1.08;;;;;;;;;;5031299;28;20457;-90
2023/08/01 14:25:52;;;;;;;4.25;1.02;;;;;;;;;;5031712;28;20079;-90
2023/08/01 14:28:17;;;;;;;4.53;1.00;;;;;;;;;;5032010;28;20025;-89
2023/08/01 14:30:43;;;;;;;4.30;1.00;;;;;;;;;;5031815;28;20049;-90